Domov               UVHVVR             MKGP            O straneh              
ZDRAVSTVENO VARSTVO RASTLIN
  MREŽA AGROMET. POSTAJ
 ► PROGNOSTIČNA OBVESTILA
AGROMETEOROLOŠKI PODATKI -
ARSO
OBVLADOVANJE TVEGANJ ZARADI
NEUGODNIH VREMENSKIH RAZMER
  ► NARAVNE NESREČE
  ► SUŠA/MOČA
  ► NAMAKANJE
  ► ŽLED (gozdarstvo)
KARTOGRAFSKI PRIKAZI
SPLETNE POVEZAVE
PROJEKTI IN PUBLIKACIJE

AGROMETEOROLOŠKA MREŽA: VREMENSKE POSTAJE IN FENOLOŠKA OPAZOVANJA

Pregled podatkov za lokacijo Dutovlje, meteorološka postaja 38560

Pregled senzorjev na lokaciji

ID Ime Zadnja
vrednost
Datum
zadnje
spremembe
Tip
senzorja
4338 Omočenost lista (U) 0 U 23.7.2018 05:30 A730WET
2016 Padavine (mm) 0 mm 23.7.2018 05:30 Rain-O-Matic
2019 Relativna vlaga 2 m (% RH) 81,12 % RH 23.7.2018 05:30 50YA
2018 Temperatura 2 m (°C) 17,75 °C 23.7.2018 05:30 50YA

Pregled podatkov zadnjih 24 ur

Zap.
št.
Datum in čas Dutovlje
Omočenost
lista
Padavine Relativna
vlaga
2
m
Temperatura
2
m
1 23.7.2018 06:00
2 23.7.2018 05:30
3 23.7.2018 05:00
4 23.7.2018 04:30 0 0 81,1 17,8
5 23.7.2018 04:00 0 0 90,8 17
6 23.7.2018 03:30 0 0 93 16,7
7 23.7.2018 03:00 0 0 92,2 16,6
8 23.7.2018 02:30 0 0 91,7 16,9
9 23.7.2018 02:00 0 0 93,2 17
10 23.7.2018 01:30 0 0 92,8 17,2
11 23.7.2018 01:00 0 0 92,3 17,7
12 23.7.2018 00:30 0 0 90,7 18,2
13 23.7.2018 00:00 0 0 89,4 18,4
14 22.7.2018 23:30 0 0 87 18,5
15 22.7.2018 23:00 0 0 90 18,4
16 22.7.2018 22:30 0 0 89 18,5
17 22.7.2018 22:00 0 0 86 18,9
18 22.7.2018 21:30 0 0 84,1 19,2
19 22.7.2018 21:00 0 0 81,7 19,6
20 22.7.2018 20:30 0 0 81,6 20
21 22.7.2018 20:00 0 0 86,4 20,3
22 22.7.2018 19:30 0 0 89,6 20,9
23 22.7.2018 19:00 0 0 86,4 21,7
24 22.7.2018 18:30 0 0 81,7 22,3
25 22.7.2018 18:00 0 0 78,8 23,1
26 22.7.2018 17:30 0 0 80,1 23,8
27 22.7.2018 17:00 0 0 74 24,7
28 22.7.2018 16:30 0 0 70,2 25,9
29 22.7.2018 16:00 0 0 68,1 24,7
30 22.7.2018 15:30 0 0 73,9 22,6
31 22.7.2018 15:00 0 0 75,7 24
32 22.7.2018 14:30 0 0 70,4 26,1
33 22.7.2018 14:00 0 0 70,2 26,1
34 22.7.2018 13:30 4 0 80,3 23,9
35 22.7.2018 13:00 10 0 90,9 20,7
36 22.7.2018 12:30 8 1,2 88,6 20,9
37 22.7.2018 12:00 0 0 76,3 24
38 22.7.2018 11:30 0 0 81,7 22,7
39 22.7.2018 11:00 0 0 76,1 23,7
40 22.7.2018 10:30 0 0 72,6 25,7
41 22.7.2018 10:00 0 0 78,8 24,4
42 22.7.2018 09:30 0 0 77,4 23,4
43 22.7.2018 09:00 0 0 76,9 23,1
44 22.7.2018 08:30 10 0 80,5 22,6
45 22.7.2018 08:00 10 0 89,5 21,5
46 22.7.2018 07:30 10 0 92,4 19,9
47 22.7.2018 07:00 10 0 95,3 19,2
48 22.7.2018 06:30 10 0 96,6 18,2
© 2011 Ministrstvo za kmetijstvo, gozdarstvo in prehrano. Vse pravice pridržane.